createdAt,value
2017-12-19T00:00:18.071Z,8.1
2017-12-19T00:02:17.753Z,8.6
2017-12-19T00:04:17.421Z,8.5
2017-12-19T00:06:18.168Z,8.8
2017-12-19T00:08:17.851Z,9
2017-12-19T00:10:17.573Z,9.1
2017-12-19T00:12:18.229Z,8.6
2017-12-19T00:14:17.919Z,9.1
2017-12-19T00:16:17.621Z,9.2
2017-12-19T00:18:18.284Z,8.9
2017-12-19T00:20:17.970Z,9.5
2017-12-19T00:22:17.700Z,10.4
2017-12-19T00:24:18.327Z,8.6
2017-12-19T00:26:18.029Z,8.8
2017-12-19T00:28:17.756Z,9.3
2017-12-19T00:30:17.405Z,9.9
2017-12-19T00:32:18.081Z,9.4
2017-12-19T00:34:17.797Z,9.1
2017-12-19T00:36:17.461Z,9.1
2017-12-19T00:38:18.185Z,8.7
2017-12-19T00:40:17.846Z,9
2017-12-19T00:42:17.561Z,9.1
2017-12-19T00:44:18.241Z,9.2
2017-12-19T00:46:16.933Z,9.2
2017-12-19T00:48:17.644Z,9.2
2017-12-19T00:50:18.360Z,8.3
2017-12-19T00:52:18.003Z,8.7
2017-12-19T00:54:17.740Z,9.3
2017-12-19T00:56:17.428Z,9.1
2017-12-19T00:58:18.100Z,9.8
2017-12-19T01:00:17.808Z,9
2017-12-19T01:02:17.495Z,9.7
2017-12-19T01:04:18.157Z,9.6
2017-12-19T01:06:17.848Z,9
2017-12-19T01:08:17.559Z,8.8
2017-12-19T01:10:17.258Z,9.7
2017-12-19T01:12:17.953Z,9.2
2017-12-19T01:14:17.687Z,8.8
2017-12-19T01:16:17.361Z,9.3
2017-12-19T01:18:18.060Z,9.1
2017-12-19T01:20:17.759Z,9
2017-12-19T01:22:17.455Z,9.2
2017-12-19T01:24:18.152Z,9
2017-12-19T01:26:17.867Z,9.6
2017-12-19T01:28:17.549Z,9.5
2017-12-19T01:30:18.240Z,9.1
2017-12-19T01:32:17.978Z,9.1
2017-12-19T01:34:17.616Z,9.3
2017-12-19T01:36:17.330Z,9
2017-12-19T01:38:18.036Z,9.9
2017-12-19T01:40:17.708Z,9.8
2017-12-19T01:42:17.416Z,9
2017-12-19T01:44:18.115Z,10.1
2017-12-19T01:46:16.807Z,8.8
2017-12-19T01:48:17.492Z,9.7
2017-12-19T01:50:18.143Z,9.2
2017-12-19T01:52:17.851Z,9.2
2017-12-19T01:54:17.566Z,9.2
2017-12-19T01:56:17.239Z,9.3
2017-12-19T01:58:17.923Z,9.9
2017-12-19T02:00:17.620Z,10
2017-12-19T02:02:18.328Z,9.1
2017-12-19T02:04:18.026Z,9.3
2017-12-19T02:06:17.693Z,10.8
2017-12-19T02:08:18.375Z,9.2
2017-12-19T02:10:17.065Z,10
2017-12-19T02:12:17.774Z,9.1
2017-12-19T02:14:17.467Z,9.9
2017-12-19T02:16:18.174Z,9.8
2017-12-19T02:18:17.888Z,11.1
2017-12-19T02:20:17.564Z,11.2
2017-12-19T02:22:18.260Z,10.7
2017-12-19T02:24:17.933Z,10.6
2017-12-19T02:26:17.665Z,10.1
2017-12-19T02:28:18.362Z,10.9
2017-12-19T02:30:18.040Z,10.9
2017-12-19T02:32:17.782Z,10
2017-12-19T02:34:17.482Z,10.3
2017-12-19T02:36:17.150Z,9.6
2017-12-19T02:38:17.869Z,10.7
2017-12-19T02:40:17.555Z,9.4
2017-12-19T02:42:18.244Z,10.1
2017-12-19T02:44:17.970Z,10.3
2017-12-19T02:46:17.641Z,10.8
2017-12-19T02:48:18.366Z,10.8
2017-12-19T02:50:18.047Z,10.5
2017-12-19T02:52:17.759Z,10.3
2017-12-19T02:54:17.489Z,10.4
2017-12-19T02:56:17.173Z,10.7
2017-12-19T02:58:17.888Z,9.6
2017-12-19T03:00:17.573Z,10.1
2017-12-19T03:02:18.261Z,11.4
2017-12-19T03:04:17.974Z,9.8
2017-12-19T03:06:17.673Z,10.5
2017-12-19T03:08:18.406Z,10.1
2017-12-19T03:10:17.153Z,9.6
2017-12-19T03:12:17.827Z,10.9
2017-12-19T03:14:17.528Z,10.7
2017-12-19T03:16:17.266Z,11.6
2017-12-19T03:18:17.955Z,10.8
2017-12-19T03:20:17.700Z,11.8
2017-12-19T03:22:18.382Z,10.6
2017-12-19T03:24:18.099Z,10.8
2017-12-19T03:26:16.811Z,11.2
2017-12-19T03:28:20.536Z,10.5
2017-12-19T03:30:18.275Z,11.4
2017-12-19T03:32:18.018Z,11.5
2017-12-19T03:34:17.697Z,11.7
2017-12-19T03:36:17.423Z,10.6
2017-12-19T03:38:18.171Z,11
2017-12-19T03:40:17.872Z,11.7
2017-12-19T03:42:17.600Z,12.3
2017-12-19T03:44:18.327Z,11.7
2017-12-19T03:46:17.036Z,10.8
2017-12-19T03:48:17.773Z,11.5
2017-12-19T03:50:17.470Z,11.1
2017-12-19T03:52:18.218Z,11.7
2017-12-19T03:54:17.909Z,12.1
2017-12-19T03:56:17.642Z,11.2
2017-12-19T03:58:21.369Z,11.8
2017-12-19T04:00:18.105Z,11.3
2017-12-19T04:02:17.820Z,11.6
2017-12-19T04:04:20.539Z,11.7
2017-12-19T04:06:17.255Z,12.1
2017-12-19T04:08:21.008Z,11.4
2017-12-19T04:10:17.730Z,12
2017-12-19T04:12:18.408Z,12.3
2017-12-19T04:14:18.114Z,10.7
2017-12-19T04:16:20.808Z,12.2
2017-12-19T04:18:17.527Z,12.1
2017-12-19T04:20:18.262Z,11.8
2017-12-19T04:22:17.943Z,11.3
2017-12-19T04:24:17.679Z,12.5
2017-12-19T04:26:18.378Z,11.8
2017-12-19T04:28:18.067Z,12.1
2017-12-19T04:30:17.771Z,12.3
2017-12-19T04:32:17.512Z,12
2017-12-19T04:34:18.209Z,11.5
2017-12-19T04:36:17.930Z,12
2017-12-19T04:38:17.661Z,12.2
2017-12-19T04:40:17.332Z,12.1
2017-12-19T04:42:18.047Z,11
2017-12-19T04:44:17.769Z,11.9
2017-12-19T04:46:17.475Z,12.2
2017-12-19T04:48:18.185Z,11.2
2017-12-19T04:50:17.918Z,11.4
2017-12-19T04:52:17.622Z,12
2017-12-19T04:54:18.381Z,13
2017-12-19T04:56:18.073Z,12.1
2017-12-19T04:58:17.765Z,12.9
2017-12-19T05:00:20.479Z,11.9
2017-12-19T05:02:18.201Z,12.6
2017-12-19T05:04:17.913Z,11
2017-12-19T05:06:17.636Z,11.2
2017-12-19T05:08:18.331Z,10.4
2017-12-19T05:10:17.074Z,10.7
2017-12-19T05:12:17.765Z,9.8
2017-12-19T05:14:17.464Z,10.8
2017-12-19T05:16:17.204Z,9.8
2017-12-19T05:18:17.859Z,10.2
2017-12-19T05:20:17.602Z,10.3
2017-12-19T05:22:18.295Z,9.7
2017-12-19T05:24:17.970Z,9.4
2017-12-19T05:26:16.701Z,10.7
2017-12-19T05:28:18.405Z,9.6
2017-12-19T05:30:18.097Z,10.3
2017-12-19T05:32:17.796Z,10.2
2017-12-19T05:34:17.534Z,10.4
2017-12-19T05:36:17.227Z,11
2017-12-19T05:38:17.916Z,11.1
2017-12-19T05:40:17.636Z,10
2017-12-19T05:42:18.380Z,10.5
2017-12-19T05:44:18.051Z,11
2017-12-19T05:46:16.800Z,9.5
2017-12-19T05:48:17.490Z,10.4
2017-12-19T05:50:18.198Z,10.6
2017-12-19T05:52:17.939Z,10.5
2017-12-19T05:54:17.619Z,9.6
2017-12-19T05:56:17.319Z,10.5
2017-12-19T05:58:18.041Z,8.9
2017-12-19T06:00:17.726Z,10
2017-12-19T06:02:18.424Z,9.5
2017-12-19T06:04:18.218Z,9.2
2017-12-19T06:06:17.837Z,9.8
2017-12-19T06:08:17.573Z,9.5
2017-12-19T06:10:17.239Z,9.4
2017-12-19T06:12:17.927Z,9.4
2017-12-19T06:14:17.657Z,8
2017-12-19T06:16:17.347Z,9.3
2017-12-19T06:18:18.021Z,9.9
2017-12-19T06:20:17.754Z,10.1
2017-12-19T06:22:17.425Z,9
2017-12-19T06:24:18.127Z,9.2
2017-12-19T06:26:17.850Z,9
2017-12-19T06:28:17.516Z,10.7
2017-12-19T06:30:18.237Z,9.7
2017-12-19T06:32:17.898Z,8.8
2017-12-19T06:34:17.577Z,9.6
2017-12-19T06:36:21.253Z,9.3
2017-12-19T06:38:17.961Z,9.4
2017-12-19T06:40:17.638Z,9.1
2017-12-19T06:42:18.357Z,10.1
2017-12-19T06:44:18.017Z,8.7
2017-12-19T06:46:17.741Z,10.1
2017-12-19T06:48:18.402Z,10
2017-12-19T06:50:18.083Z,9.7
2017-12-19T06:52:17.771Z,9.7
2017-12-19T06:54:17.463Z,10
2017-12-19T06:56:17.134Z,10.7
2017-12-19T06:58:17.873Z,10.2
2017-12-19T07:00:17.533Z,11.1
2017-12-19T07:02:18.238Z,11.4
2017-12-19T07:04:17.874Z,10.8
2017-12-19T07:06:17.585Z,10.5
2017-12-19T07:08:18.282Z,9.7
2017-12-19T07:10:16.977Z,10
2017-12-19T07:12:17.651Z,10.5
2017-12-19T07:14:18.334Z,10.3
2017-12-19T07:16:18.026Z,10.7
2017-12-19T07:18:17.761Z,10.6
2017-12-19T07:20:17.394Z,10.4
2017-12-19T07:22:18.074Z,10.6
2017-12-19T07:24:17.779Z,10.4
2017-12-19T07:26:17.498Z,10.7
2017-12-19T07:28:18.148Z,10
2017-12-19T07:30:17.822Z,10
2017-12-19T07:32:17.539Z,11
2017-12-19T07:34:18.223Z,10.2
2017-12-19T07:36:17.888Z,9.6
2017-12-19T07:38:17.598Z,10.3
2017-12-19T07:40:17.274Z,10.2
2017-12-19T07:42:17.963Z,11.3
2017-12-19T07:44:17.686Z,10.6
2017-12-19T07:46:17.354Z,11.2
2017-12-19T07:48:18.050Z,10.9
2017-12-19T07:50:17.737Z,11.1
2017-12-19T07:52:18.421Z,11.1
2017-12-19T07:54:18.130Z,11
2017-12-19T07:56:16.841Z,11.4
2017-12-19T07:58:17.516Z,11.3
2017-12-19T08:00:18.235Z,11.2
2017-12-19T08:02:17.917Z,11.8
2017-12-19T08:04:17.604Z,10.9
2017-12-19T08:06:17.299Z,12.5
2017-12-19T08:08:17.998Z,12.5
2017-12-19T08:10:17.684Z,12.4
2017-12-19T08:12:18.379Z,11.8
2017-12-19T08:14:18.132Z,12.8
2017-12-19T08:16:16.782Z,12.3
2017-12-19T08:18:17.481Z,12.7
2017-12-19T08:20:18.204Z,13
2017-12-19T08:22:17.856Z,13.4
2017-12-19T08:24:17.576Z,13.1
2017-12-19T08:26:17.237Z,12.7
2017-12-19T08:28:17.938Z,13
2017-12-19T08:30:17.637Z,13.4
2017-12-19T08:32:18.330Z,13.3
2017-12-19T08:34:18.029Z,13.6
2017-12-19T08:36:17.753Z,14.1
2017-12-19T08:38:18.402Z,13.6
2017-12-19T08:40:17.143Z,15.1
2017-12-19T08:42:17.809Z,14.4
2017-12-19T08:44:17.510Z,13.6
2017-12-19T08:48:16.941Z,15.4
2017-12-19T08:50:17.600Z,14.5
2017-12-19T08:52:18.327Z,14.7
2017-12-19T08:54:18.010Z,16.6
2017-12-19T08:56:17.692Z,16
2017-12-19T08:58:18.422Z,17.2
2017-12-19T09:00:18.109Z,15.7
2017-12-19T09:02:17.800Z,16.2
2017-12-19T09:04:17.511Z,17.4
2017-12-19T09:06:17.189Z,16.3
2017-12-19T09:08:17.939Z,17.2
2017-12-19T09:10:17.613Z,16.8
2017-12-19T09:12:18.355Z,17.7
2017-12-19T09:14:18.076Z,17.5
2017-12-19T09:16:16.825Z,17.1
2017-12-19T09:18:17.521Z,17.5
2017-12-19T09:20:18.290Z,17.8
2017-12-19T09:22:17.950Z,17.8
2017-12-19T09:24:17.708Z,17.3
2017-12-19T09:26:17.406Z,18.3
2017-12-19T09:28:18.103Z,18.9
2017-12-19T09:30:17.814Z,17.6
2017-12-19T09:32:17.542Z,18.8
2017-12-19T09:34:18.223Z,19.2
2017-12-19T09:36:16.950Z,19.1
2017-12-19T09:38:17.689Z,19.4
2017-12-19T09:40:17.383Z,20.8
2017-12-19T09:42:18.088Z,21.1
2017-12-19T09:44:17.836Z,20.1
2017-12-19T09:46:17.515Z,19.8
2017-12-19T09:48:18.226Z,19.6
2017-12-19T09:50:17.932Z,19.5
2017-12-19T09:52:17.638Z,19.6
2017-12-19T09:54:18.341Z,19.2
2017-12-19T09:56:17.051Z,18.6
2017-12-19T09:58:20.767Z,20.3
2017-12-19T10:00:17.515Z,20.5
2017-12-19T10:02:18.195Z,19.9
2017-12-19T10:04:17.896Z,19.3
2017-12-19T10:06:17.636Z,18.5
2017-12-19T10:08:18.343Z,20.2
2017-12-19T10:10:17.091Z,19
2017-12-19T10:12:17.808Z,20.4
2017-12-19T10:14:17.508Z,20.9
2017-12-19T10:16:17.413Z,20.1
2017-12-19T10:18:17.951Z,19.4
2017-12-19T10:20:17.634Z,19.8
2017-12-19T10:22:18.342Z,20.4
2017-12-19T10:24:18.064Z,20
2017-12-19T10:26:16.807Z,18.2
2017-12-19T10:28:17.503Z,19.3
2017-12-19T10:30:18.232Z,19
2017-12-19T10:32:17.931Z,20.4
2017-12-19T10:34:17.691Z,20.4
2017-12-19T10:36:17.358Z,18.2
2017-12-19T10:38:18.085Z,18.9
2017-12-19T10:40:17.801Z,19.1
2017-12-19T10:42:17.603Z,17.9
2017-12-19T10:44:18.244Z,18.3
2017-12-19T10:46:16.953Z,18.4
2017-12-19T10:48:20.661Z,18.4
2017-12-19T10:50:21.416Z,17.8
2017-12-19T10:52:18.101Z,19
2017-12-19T10:54:20.838Z,17
2017-12-19T10:56:17.589Z,19.5
2017-12-19T10:58:18.333Z,18
2017-12-19T11:00:18.039Z,17.1
2017-12-19T11:02:17.763Z,16.9
2017-12-19T11:04:20.456Z,17
2017-12-19T11:06:18.247Z,16.3
2017-12-19T11:08:17.935Z,16.5
2017-12-19T11:10:17.636Z,16.6
2017-12-19T11:12:18.395Z,16.9
2017-12-19T11:14:18.127Z,17.6
2017-12-19T11:16:17.812Z,16.3
2017-12-19T11:18:17.549Z,16.1
2017-12-19T11:20:18.266Z,16.4
2017-12-19T11:22:17.951Z,14.6
2017-12-19T11:24:17.707Z,15.8
2017-12-19T11:26:17.438Z,16
2017-12-19T11:28:18.125Z,16.1
2017-12-19T11:30:17.875Z,15
2017-12-19T11:32:17.592Z,14.2
2017-12-19T11:34:18.308Z,14.7
2017-12-19T11:36:21.020Z,13.6
2017-12-19T11:38:20.754Z,13.8
2017-12-19T11:40:17.479Z,14.4
2017-12-19T11:42:18.209Z,12.4
2017-12-19T11:46:17.633Z,13.2
2017-12-19T11:48:18.324Z,12.7
2017-12-19T11:50:18.022Z,12
2017-12-19T11:52:20.774Z,11.7
2017-12-19T11:54:17.531Z,11.2
2017-12-19T11:56:17.228Z,11.5
2017-12-19T11:58:17.953Z,11.1
2017-12-19T12:00:17.709Z,11
2017-12-19T12:02:18.397Z,11.2
2017-12-19T12:04:18.124Z,9.6
2017-12-19T12:06:17.862Z,9.3
2017-12-19T12:08:17.598Z,8.9
2017-12-19T12:10:17.287Z,10
2017-12-19T12:12:17.999Z,9.5
2017-12-19T12:14:17.776Z,9.1
2017-12-19T12:16:17.488Z,10.6
2017-12-19T12:18:18.181Z,9
2017-12-19T12:20:17.924Z,9.3
2017-12-19T12:22:17.629Z,9
2017-12-19T12:24:18.352Z,8.7
2017-12-19T12:26:18.059Z,8.8
2017-12-19T12:28:17.782Z,9
2017-12-19T12:30:17.493Z,8.4
2017-12-19T12:32:18.233Z,8.1
2017-12-19T12:34:17.947Z,8.4
2017-12-19T12:36:17.671Z,8.1
2017-12-19T12:38:21.393Z,8.2
2017-12-19T12:40:17.142Z,6.9
2017-12-19T12:42:17.842Z,7.2
2017-12-19T12:44:17.563Z,7.4
2017-12-19T12:46:17.322Z,7.1
2017-12-19T12:48:18.033Z,7.5
2017-12-19T12:50:17.740Z,7
2017-12-19T12:52:18.459Z,7.5
2017-12-19T12:54:18.161Z,7
2017-12-19T12:56:16.875Z,7.6
2017-12-19T12:58:20.622Z,7.5
2017-12-19T13:00:18.326Z,7.9
2017-12-19T13:02:18.046Z,8.1
2017-12-19T13:04:17.775Z,8.4
2017-12-19T13:06:17.466Z,7.7
2017-12-19T13:08:21.208Z,8.2
2017-12-19T13:10:17.928Z,8.4
2017-12-19T13:12:20.635Z,9.1
2017-12-19T13:14:21.399Z,8.6
2017-12-19T13:16:17.101Z,7.9
2017-12-19T13:18:17.825Z,9.7
2017-12-19T13:20:17.572Z,8.6
2017-12-19T13:22:18.294Z,8.9
2017-12-19T13:24:21.001Z,9.2
2017-12-19T13:26:17.746Z,8.7
2017-12-19T13:28:17.471Z,9.3
2017-12-19T13:30:18.228Z,8.8
2017-12-19T13:32:17.939Z,10.1
2017-12-19T13:34:20.660Z,9
2017-12-19T13:36:17.440Z,9.2
2017-12-19T13:38:18.149Z,9.8
2017-12-19T13:40:17.891Z,9.8
2017-12-19T13:42:17.636Z,10.3
2017-12-19T13:44:18.370Z,9.8
2017-12-19T13:46:17.093Z,10.4
2017-12-19T13:48:17.833Z,10.5
2017-12-19T13:50:17.542Z,10.1
2017-12-19T13:52:18.290Z,9.6
2017-12-19T13:54:17.990Z,9.2
2017-12-19T13:56:16.713Z,9.6
2017-12-19T13:58:18.460Z,9
2017-12-19T14:00:18.161Z,9.4
2017-12-19T14:02:17.903Z,10.3
2017-12-19T14:04:17.644Z,9.3
2017-12-19T14:06:17.356Z,10.4
2017-12-19T14:08:18.126Z,8.6
2017-12-19T14:10:17.830Z,9.7
2017-12-19T14:12:17.570Z,9.9
2017-12-19T14:14:21.306Z,9.4
2017-12-19T14:16:17.027Z,8.3
2017-12-19T14:18:17.777Z,8.9
2017-12-19T14:20:20.500Z,9.1
2017-12-19T14:22:21.258Z,8.9
2017-12-19T14:24:21.006Z,8.8
2017-12-19T14:26:16.727Z,9.2
2017-12-19T14:28:18.477Z,7.7
2017-12-19T14:30:18.225Z,8
2017-12-19T14:32:17.915Z,7.8
2017-12-19T14:34:20.656Z,7.7
2017-12-19T14:36:17.413Z,7.1
2017-12-19T14:38:18.120Z,7.1
2017-12-19T14:40:17.863Z,7.7
2017-12-19T14:42:17.607Z,8.3
2017-12-19T14:44:18.338Z,8.5
2017-12-19T14:46:17.050Z,9.7
2017-12-19T14:48:20.790Z,8.2
2017-12-19T14:50:17.522Z,9.6
2017-12-19T14:52:21.252Z,9.7
2017-12-19T14:54:20.988Z,8.2
2017-12-19T14:56:17.771Z,9.4
2017-12-19T14:58:17.480Z,11.5
2017-12-19T15:00:18.194Z,11.3
2017-12-19T15:02:17.904Z,9.9
2017-12-19T15:04:20.617Z,8.6
2017-12-19T15:06:17.388Z,10.5
2017-12-19T15:08:18.108Z,9.5
2017-12-19T15:10:17.856Z,9.6
2017-12-19T15:12:17.609Z,10.3
2017-12-19T15:14:18.314Z,13.5
2017-12-19T15:16:18.069Z,13.4
2017-12-19T15:18:17.828Z,9.7
2017-12-19T15:20:17.548Z,9.3
2017-12-19T15:22:21.308Z,7.9
2017-12-19T15:24:18.038Z,7.4
2017-12-19T15:26:16.787Z,8.6
2017-12-19T15:28:20.542Z,15.5
2017-12-19T15:30:18.251Z,15.7
2017-12-19T15:32:21.011Z,11.5
2017-12-19T15:34:20.777Z,8.7
2017-12-19T15:36:17.519Z,8.5
2017-12-19T15:38:21.216Z,8.6
2017-12-19T15:40:16.972Z,9.5
2017-12-19T15:42:20.706Z,9.3
2017-12-19T15:44:21.493Z,10.1
2017-12-19T15:46:17.210Z,10
2017-12-19T15:48:16.984Z,10.1
2017-12-19T15:50:17.743Z,10.6
2017-12-19T15:52:17.477Z,10.8
2017-12-19T15:54:17.260Z,11.1
2017-12-19T15:56:17.027Z,9.9
2017-12-19T15:58:17.736Z,12.1
2017-12-19T16:00:18.542Z,11.8
2017-12-19T16:02:18.271Z,14.7
2017-12-19T16:04:17.986Z,11.3
2017-12-19T16:06:17.766Z,12.3
2017-12-19T16:08:17.535Z,16
2017-12-19T16:10:17.269Z,10.4
2017-12-19T16:12:20.980Z,10
2017-12-19T16:14:16.774Z,11.2
2017-12-19T16:16:17.560Z,11.8
2017-12-19T16:18:18.274Z,11.3
2017-12-19T16:20:21.049Z,12.4
2017-12-19T16:22:20.798Z,14.7
2017-12-19T16:24:20.552Z,9.6
2017-12-19T16:26:17.351Z,10.2
2017-12-19T16:28:21.076Z,11.7
2017-12-19T16:30:16.888Z,9.3
2017-12-19T16:32:17.658Z,10.2
2017-12-19T16:34:18.359Z,9.2
2017-12-19T16:36:17.139Z,9.8
2017-12-19T16:38:20.886Z,10.3
2017-12-19T16:40:17.638Z,9.2
2017-12-19T16:42:21.375Z,9.3
2017-12-19T16:44:17.146Z,9.2
2017-12-19T16:46:17.921Z,10
2017-12-19T16:48:20.698Z,10.3
2017-12-19T16:50:21.446Z,10.5
2017-12-19T16:52:21.201Z,11.2
2017-12-19T16:54:20.931Z,13.1
2017-12-19T16:56:17.730Z,10.4
2017-12-19T16:58:18.487Z,10.9
2017-12-19T17:00:21.283Z,10.3
2017-12-19T17:02:17.984Z,10.4
2017-12-19T17:04:20.756Z,10.6
2017-12-19T17:06:17.503Z,10.3
2017-12-19T17:08:21.286Z,11.1
2017-12-19T17:10:17.023Z,11.6
2017-12-19T17:12:20.763Z,10.2
2017-12-19T17:14:16.578Z,11
2017-12-19T17:16:17.307Z,11.9
2017-12-19T17:18:18.058Z,11.5
2017-12-19T17:20:20.816Z,15.1
2017-12-19T17:22:20.542Z,20.3
2017-12-19T17:24:17.319Z,12.8
2017-12-19T17:26:17.084Z,12.2
2017-12-19T17:28:20.820Z,11.7
2017-12-19T17:30:16.629Z,9.5
2017-12-19T17:32:18.343Z,11.7
2017-12-19T17:34:21.090Z,11.8
2017-12-19T17:36:17.899Z,12.4
2017-12-19T17:38:17.610Z,12.4
2017-12-19T17:40:17.395Z,11.6
2017-12-19T17:42:18.158Z,11.1
2017-12-19T17:44:20.905Z,11.3
2017-12-19T17:46:17.657Z,11.9
2017-12-19T17:48:21.412Z,11.6
2017-12-19T17:50:17.163Z,10.9
2017-12-19T17:52:16.975Z,11.3
2017-12-19T17:54:17.724Z,11.2
2017-12-19T17:56:17.468Z,11.1
2017-12-19T17:58:21.257Z,11.3
2017-12-19T18:00:18.015Z,11.2
2017-12-19T18:02:17.771Z,10.4
2017-12-19T18:04:20.539Z,11.6
2017-12-19T18:06:17.313Z,11.6
2017-12-19T18:08:21.086Z,11.2
2017-12-19T18:10:17.849Z,11.8
2017-12-19T18:12:16.626Z,11.2
2017-12-19T18:14:21.387Z,12.1
2017-12-19T18:16:18.166Z,12
2017-12-19T18:18:17.954Z,12.7
2017-12-19T18:20:20.704Z,12.7
2017-12-19T18:22:17.506Z,13.6
2017-12-19T18:24:21.262Z,14.2
2017-12-19T18:26:17.015Z,13.2
2017-12-19T18:28:16.794Z,14.2
2017-12-19T18:30:20.552Z,13.5
2017-12-19T18:32:17.339Z,14.1
2017-12-19T18:34:18.089Z,14.3
2017-12-19T18:36:17.855Z,12.7
2017-12-19T18:38:16.629Z,12.1
2017-12-19T18:40:17.425Z,11.7
2017-12-19T18:42:18.184Z,12.3
2017-12-19T18:44:20.916Z,13.2
2017-12-19T18:46:17.722Z,12.8
2017-12-19T18:48:21.448Z,12
2017-12-19T18:50:18.211Z,12.9
2017-12-19T18:52:20.988Z,12.7
2017-12-19T18:54:16.743Z,12.4
2017-12-19T18:56:17.554Z,12.6
2017-12-19T18:58:18.300Z,12.4
2017-12-19T19:00:21.031Z,13.3
2017-12-19T19:02:16.845Z,11.2
2017-12-19T19:04:20.569Z,12.4
2017-12-19T19:06:18.352Z,12.1
2017-12-19T19:08:17.177Z,11.8
2017-12-19T19:10:17.908Z,12.1
2017-12-19T19:12:20.677Z,12.4
2017-12-19T19:14:21.430Z,13.1
2017-12-19T19:16:17.186Z,12.9
2017-12-19T19:18:17.960Z,13.4
2017-12-19T19:20:20.692Z,13.9
2017-12-19T19:22:17.480Z,13
2017-12-19T19:24:21.247Z,14
2017-12-19T19:26:17.970Z,13.5
2017-12-19T19:28:20.768Z,12.4
2017-12-19T19:30:17.502Z,12.8
2017-12-19T19:32:21.250Z,12.7
2017-12-19T19:34:20.982Z,12.5
2017-12-19T19:36:16.761Z,12.7
2017-12-19T19:38:20.502Z,14.3
2017-12-19T19:40:17.279Z,14.2
2017-12-19T19:42:21.012Z,14.9
2017-12-19T19:44:20.800Z,14.4
2017-12-19T19:46:17.564Z,13.8
2017-12-19T19:48:18.285Z,12.8
2017-12-19T19:50:21.009Z,14.4
2017-12-19T19:52:20.775Z,12.7
2017-12-19T19:54:20.512Z,12.5
2017-12-19T19:56:17.311Z,13.2
2017-12-19T19:58:18.055Z,14.4
2017-12-19T20:00:17.773Z,13.4
2017-12-19T20:02:20.539Z,13.6
2017-12-19T20:04:21.307Z,12.8
2017-12-19T20:06:18.050Z,12.2
2017-12-19T20:08:20.782Z,12.1
2017-12-19T20:10:17.568Z,13
2017-12-19T20:12:21.277Z,13.7
2017-12-19T20:14:21.040Z,11.8
2017-12-19T20:16:17.806Z,12.8
2017-12-19T20:18:17.559Z,12.4
2017-12-19T20:20:18.299Z,12
2017-12-19T20:22:18.056Z,11.2
2017-12-19T20:24:17.811Z,11.6
2017-12-19T20:26:17.571Z,13.1
2017-12-19T20:28:18.292Z,12.1
2017-12-19T20:30:18.064Z,11.6
2017-12-19T20:32:17.829Z,12.3
2017-12-19T20:34:17.545Z,11.7
2017-12-19T20:36:17.307Z,13.3
2017-12-19T20:38:18.073Z,11.9
2017-12-19T20:40:17.825Z,11.9
2017-12-19T20:42:17.557Z,11.4
2017-12-19T20:44:21.311Z,11.8
2017-12-19T20:46:17.081Z,12
2017-12-19T20:48:17.814Z,12.5
2017-12-19T20:50:17.561Z,12.3
2017-12-19T20:52:18.278Z,11.6
2017-12-19T20:54:17.045Z,11.6
2017-12-19T20:56:17.804Z,11.7
2017-12-19T20:58:20.530Z,12.3
2017-12-19T21:00:21.315Z,10.8
2017-12-19T21:02:21.064Z,11.6
2017-12-19T21:04:16.798Z,12.5
2017-12-19T21:06:17.582Z,12.3
2017-12-19T21:08:18.299Z,13
2017-12-19T21:10:17.053Z,12.2
2017-12-19T21:12:20.792Z,12.8
2017-12-19T21:14:17.513Z,14.1
2017-12-19T21:16:17.281Z,17.9
2017-12-19T21:18:18.069Z,13.8
2017-12-19T21:20:17.800Z,12.9
2017-12-19T21:22:17.528Z,13
2017-12-19T21:24:18.307Z,13
2017-12-19T21:26:18.041Z,13.1
2017-12-19T21:28:17.784Z,12.7
2017-12-19T21:30:17.503Z,12.3
2017-12-19T21:32:18.247Z,12.9
2017-12-19T21:34:18.018Z,12.5
2017-12-19T21:38:17.478Z,13.3
2017-12-19T21:40:17.206Z,13.1
2017-12-19T21:42:16.987Z,13.7
2017-12-19T21:44:20.717Z,13
2017-12-19T21:46:17.527Z,12.9
2017-12-19T21:48:18.237Z,12.4
2017-12-19T21:50:20.986Z,12.3
2017-12-19T21:52:16.782Z,13.6
2017-12-19T21:54:17.495Z,13.6
2017-12-19T21:56:17.274Z,12.2
2017-12-19T21:58:18.023Z,12.6
2017-12-19T22:00:17.771Z,13.3
2017-12-19T22:02:20.500Z,11.6
2017-12-19T22:04:21.271Z,12.8
2017-12-19T22:06:18.052Z,12.5
2017-12-19T22:08:20.768Z,13.2
2017-12-19T22:10:17.545Z,12.4
2017-12-19T22:12:21.280Z,12.5
2017-12-19T22:14:17.068Z,13
2017-12-19T22:16:16.831Z,11.8
2017-12-19T22:18:17.577Z,12.2
2017-12-19T22:20:21.329Z,11.9
2017-12-19T22:22:21.096Z,11.8
2017-12-19T22:24:20.840Z,11.8
2017-12-19T22:26:17.619Z,11.6
2017-12-19T22:28:18.377Z,13.2
2017-12-19T22:30:18.097Z,12.6
2017-12-19T22:32:17.871Z,12.5
2017-12-19T22:34:17.617Z,12.2
2017-12-19T22:36:17.394Z,11.8
2017-12-19T22:38:18.163Z,12
2017-12-19T22:40:17.883Z,12.5
2017-12-19T22:42:16.661Z,11.3
2017-12-19T22:44:17.448Z,11.3
2017-12-19T22:46:18.184Z,11.9
2017-12-19T22:48:20.971Z,11.1
2017-12-19T22:50:17.716Z,11.5
2017-12-19T22:52:18.444Z,11.4
2017-12-19T22:54:21.218Z,11.4
2017-12-19T22:56:17.981Z,10.9
2017-12-19T22:58:20.729Z,11.1
2017-12-19T23:00:18.498Z,10.4
2017-12-19T23:02:21.220Z,9.8
2017-12-19T23:04:17.034Z,9.3
2017-12-19T23:06:17.776Z,9.9
2017-12-19T23:08:20.501Z,9.1
2017-12-19T23:10:17.328Z,9.1
2017-12-19T23:12:18.030Z,9
2017-12-19T23:14:17.767Z,8.8
2017-12-19T23:16:17.535Z,8.1
2017-12-19T23:18:18.260Z,8.3
2017-12-19T23:20:21.009Z,7.9
2017-12-19T23:22:20.773Z,7.8
2017-12-19T23:24:20.505Z,7.4
2017-12-19T23:26:17.279Z,7.7
2017-12-19T23:28:17.059Z,7.1
2017-12-19T23:30:17.774Z,8.1
2017-12-19T23:32:20.528Z,7.4
2017-12-19T23:34:17.315Z,7.3
2017-12-19T23:36:18.049Z,7.8
2017-12-19T23:38:20.809Z,7
2017-12-19T23:40:17.574Z,7.2
2017-12-19T23:42:21.323Z,7.6
2017-12-19T23:44:21.070Z,7
2017-12-19T23:46:16.855Z,7.4
2017-12-19T23:48:16.640Z,8.5
2017-12-19T23:50:18.407Z,7.5
2017-12-19T23:52:18.149Z,7.6
2017-12-19T23:54:20.915Z,7.3
2017-12-19T23:56:17.709Z,8.4
2017-12-19T23:58:18.447Z,8
